Time;durP1;ratioP1;P1;durP2;ratioP2;P2;SDS_P1;SDS_P2;PMS_P1;PMS_P2;Temp;Humidity;BMP_temperature;BMP_pressure;BME280_temperature;BME280_humidity;BME280_pressure;Samples;Min_cycle;Max_cycle;Signal;HPM_P1;HPM_P2
2023/03/18 00:00:50;;;;;;;22.37;11.13;;;;;;;3.77;66.67;101224.38;124706;1099;104242;-77
2023/03/18 00:03:23;;;;;;;20.63;10.37;;;;;;;3.76;66.00;101225.16;124326;1099;101830;-76
2023/03/18 00:06:02;;;;;;;22.13;10.73;;;;;;;3.78;66.85;101217.48;124737;1099;104283;-78
2023/03/18 00:08:33;;;;;;;22.87;12.07;;;;;;;3.78;66.43;101223.56;124821;1099;104231;-77
2023/03/18 00:11:06;;;;;;;23.03;11.27;;;;;;;3.77;66.24;101224.38;124841;1099;104098;-77
2023/03/18 00:13:38;;;;;;;21.50;11.33;;;;;;;3.78;67.18;101227.87;124382;1099;104191;-77
2023/03/18 00:16:11;;;;;;;23.87;12.00;;;;;;;3.80;67.57;101228.88;124770;1099;104248;-78
2023/03/18 00:18:43;;;;;;;26.27;12.82;;;;;;;3.81;66.78;101222.01;124804;1099;104190;-76
2023/03/18 00:21:15;;;;;;;27.90;13.43;;;;;;;3.78;67.40;101222.67;124673;1099;102275;-76
2023/03/18 00:23:47;;;;;;;25.23;12.63;;;;;;;3.78;67.94;101222.67;124726;1099;104241;-76
2023/03/18 00:26:19;;;;;;;25.80;12.33;;;;;;;3.78;66.97;101220.08;124718;1099;102313;-76
2023/03/18 00:28:51;;;;;;;24.10;11.77;;;;;;;3.79;67.61;101216.70;124700;1098;104191;-76
2023/03/18 00:31:23;;;;;;;23.53;11.90;;;;;;;3.78;68.71;101220.08;124708;1099;101931;-77
2023/03/18 00:33:55;;;;;;;24.37;12.10;;;;;;;3.78;69.01;101217.48;124283;1099;101955;-77
2023/03/18 00:36:26;;;;;;;23.90;12.73;;;;;;;3.77;68.27;101218.27;124749;1099;104232;-76
2023/03/18 00:38:58;;;;;;;22.43;11.23;;;;;;;3.76;68.81;101219.07;124322;1099;104169;-76
2023/03/18 00:41:31;;;;;;;26.27;11.80;;;;;;;3.77;69.14;101218.27;124691;1099;104195;-76
2023/03/18 00:44:03;;;;;;;28.02;13.18;;;;;;;3.77;69.52;101220.86;124770;1099;103648;-77
2023/03/18 00:46:37;;;;;;;29.13;13.07;;;;;;;3.73;68.97;101218.84;124705;1099;104192;-76
2023/03/18 00:49:09;;;;;;;27.02;13.28;;;;;;;3.75;68.25;101222.45;124710;1099;104201;-77
2023/03/18 00:51:41;;;;;;;26.20;13.23;;;;;;;3.76;69.49;101225.16;124759;1099;104169;-77
2023/03/18 00:54:16;;;;;;;26.80;14.35;;;;;;;3.74;68.88;101212.84;124346;1101;101928;-76
2023/03/18 00:56:48;;;;;;;27.23;13.47;;;;;;;3.72;69.22;101214.42;124413;1099;104235;-77
2023/03/18 00:59:20;;;;;;;26.63;13.10;;;;;;;3.71;69.62;101210.02;124801;1099;104636;-77
2023/03/18 01:01:51;;;;;;;26.23;13.13;;;;;;;3.71;69.17;101215.20;124463;1099;104208;-78
2023/03/18 01:04:22;;;;;;;28.63;13.07;;;;;;;3.71;70.11;101217.80;124933;1099;101833;-82
2023/03/18 01:06:53;;;;;;;26.37;12.93;;;;;;;3.68;68.82;101212.41;124286;1100;104205;-78
2023/03/18 01:09:25;;;;;;;29.20;15.00;;;;;;;3.66;69.77;101214.89;124399;1102;104242;-77
2023/03/18 01:11:56;;;;;;;27.70;13.03;;;;;;;3.65;69.58;101213.08;124452;1099;101856;-77
2023/03/18 01:14:28;;;;;;;27.57;14.00;;;;;;;3.67;69.89;101213.19;124828;1099;104057;-77
2023/03/18 01:17:01;;;;;;;28.47;14.57;;;;;;;3.66;70.09;101206.18;124890;1098;104232;-78
2023/03/18 01:19:32;;;;;;;29.70;14.27;;;;;;;3.63;69.91;101206.87;124463;1099;102450;-77
2023/03/18 01:22:05;;;;;;;27.50;14.33;;;;;;;3.63;69.33;101205.95;124367;1099;104166;-76
2023/03/18 01:24:41;;;;;;;30.07;14.07;;;;;;;3.65;69.19;101205.29;124370;1099;102489;-77
2023/03/18 01:27:13;;;;;;;29.40;14.03;;;;;;;3.64;69.31;101203.47;124453;1099;101928;-76
2023/03/18 01:29:45;;;;;;;30.00;15.33;;;;;;;3.65;69.81;101200.09;124282;1099;104452;-78
2023/03/18 01:32:20;;;;;;;31.53;15.60;;;;;;;3.68;70.32;101209.81;124542;1099;101995;-78
2023/03/18 01:34:52;;;;;;;27.13;14.10;;;;;;;3.65;69.95;101201.80;124609;1099;103842;-76
2023/03/18 01:37:23;;;;;;;29.40;14.77;;;;;;;3.66;69.71;101201.92;124492;1099;102022;-79
2023/03/18 01:40:02;;;;;;;25.83;13.30;;;;;;;3.66;69.73;101204.52;124477;1099;104159;-80
2023/03/18 01:42:33;;;;;;;29.40;13.90;;;;;;;3.66;70.87;101209.70;124510;1100;102334;-77
2023/03/18 01:45:22;;;;;;;30.57;13.93;;;;;;;3.65;69.93;101204.40;124476;1099;104239;-76
2023/03/18 01:47:56;;;;;;;30.93;14.60;;;;;;;3.67;70.35;101202.81;124524;1099;104223;-77
2023/03/18 01:50:31;;;;;;;29.30;14.27;;;;;;;3.67;69.96;101192.42;124431;1099;104325;-77
2023/03/18 01:53:07;;;;;;;31.90;14.33;;;;;;;3.66;70.37;101196.73;124415;1099;104056;-77
2023/03/18 01:55:40;;;;;;;30.13;14.00;;;;;;;3.68;71.63;101204.62;124950;1099;104252;-77
2023/03/18 01:58:17;;;;;;;30.10;13.85;;;;;;;3.67;70.20;101195.02;124872;1099;104332;-77
2023/03/18 02:00:53;;;;;;;27.90;13.73;;;;;;;3.69;70.83;101199.52;124469;1099;104383;-77
2023/03/18 02:03:26;;;;;;;29.40;13.83;;;;;;;3.72;70.79;101197.15;124772;1098;104185;-76
2023/03/18 02:05:58;;;;;;;31.13;14.63;;;;;;;3.75;70.41;101201.68;124367;1099;104115;-77
2023/03/18 02:08:30;;;;;;;27.30;14.07;;;;;;;3.78;70.60;101202.80;124416;1099;104245;-77
2023/03/18 02:11:03;;;;;;;31.20;14.70;;;;;;;3.81;70.83;101203.84;124532;1100;101837;-77
2023/03/18 02:13:37;;;;;;;30.73;14.47;;;;;;;3.83;70.31;101207.44;124950;1099;104213;-77
2023/03/18 02:16:13;;;;;;;30.30;15.05;;;;;;;3.86;70.98;101205.07;124893;1099;104210;-75
2023/03/18 02:18:49;;;;;;;27.70;13.87;;;;;;;3.87;72.01;101209.48;124523;1098;104205;-78
2023/03/18 02:21:33;;;;;;;30.43;14.63;;;;;;;3.90;71.02;101207.11;124549;1099;104315;-77
2023/03/18 02:24:16;;;;;;;27.07;12.83;;;;;;;3.92;70.91;101209.02;124461;1101;104268;-78
2023/03/18 02:26:52;;;;;;;33.10;14.87;;;;;;;3.92;70.83;101206.41;124343;1102;102553;-77
2023/03/18 02:29:31;;;;;;;27.20;14.30;;;;;;;3.95;71.43;101206.64;124390;1102;101935;-77
2023/03/18 02:32:08;;;;;;;28.20;13.53;;;;;;;3.97;71.26;101209.35;124477;1101;104322;-77
2023/03/18 02:34:42;;;;;;;28.73;13.55;;;;;;;3.98;71.24;101215.47;124517;1099;110863;-77
2023/03/18 02:37:16;;;;;;;28.80;13.47;;;;;;;3.98;71.58;101210.28;124493;1099;104181;-77
2023/03/18 02:39:48;;;;;;;28.40;13.70;;;;;;;3.96;71.31;101216.25;124465;1099;104249;-77
2023/03/18 02:42:30;;;;;;;28.27;13.90;;;;;;;3.98;71.99;101212.87;124535;1099;104268;-77
2023/03/18 02:45:02;;;;;;;32.00;14.53;;;;;;;3.99;72.73;101212.98;124468;1099;104287;-77
2023/03/18 02:47:45;;;;;;;31.70;14.37;;;;;;;3.98;72.80;101212.87;124535;1099;104227;-77
2023/03/18 02:50:16;;;;;;;30.87;14.10;;;;;;;3.98;74.75;101215.47;125103;1099;101842;-77
2023/03/18 02:52:47;;;;;;;30.57;14.30;;;;;;;4.01;73.16;101213.99;124940;1099;104217;-78
2023/03/18 02:55:19;;;;;;;30.03;14.47;;;;;;;4.01;72.94;101216.59;124921;1099;107098;-78
2023/03/18 02:57:50;;;;;;;29.57;14.77;;;;;;;4.00;72.67;101211.28;124543;1099;104210;-77
2023/03/18 03:00:22;;;;;;;29.70;14.27;;;;;;;4.01;73.51;101213.10;124478;1099;104261;-77
2023/03/18 03:02:54;;;;;;;30.63;14.53;;;;;;;4.01;73.07;101211.39;124856;1099;104194;-77
2023/03/18 03:05:26;;;;;;;28.30;14.17;;;;;;;4.03;72.48;101211.51;124859;1099;118795;-76
2023/03/18 03:07:57;;;;;;;29.93;14.67;;;;;;;4.02;72.71;101218.41;124835;1099;104252;-76
2023/03/18 03:10:29;;;;;;;27.33;13.97;;;;;;;4.02;73.41;101225.27;124497;1099;104179;-78
2023/03/18 03:13:00;;;;;;;31.65;15.00;;;;;;;4.02;73.93;101213.21;125021;1099;104200;-77
2023/03/18 03:15:31;;;;;;;29.80;14.80;;;;;;;4.00;73.75;101216.47;124946;1099;102346;-77
2023/03/18 03:18:04;;;;;;;28.50;13.60;;;;;;;3.99;73.43;101212.06;124543;1099;104297;-78
2023/03/18 03:20:36;;;;;;;28.30;13.80;;;;;;;3.98;73.86;101218.95;125035;1099;101928;-77
2023/03/18 03:23:10;;;;;;;29.17;14.50;;;;;;;4.00;73.67;101214.77;124973;1099;104172;-77
2023/03/18 03:25:43;;;;;;;32.35;14.43;;;;;;;4.04;73.65;101221.11;124785;1099;104197;-77
2023/03/18 03:28:16;;;;;;;28.67;14.28;;;;;;;4.05;73.03;101215.11;124910;1099;104178;-77
2023/03/18 03:30:50;;;;;;;29.27;14.10;;;;;;;4.07;73.55;101206.65;124969;1099;104172;-77
2023/03/18 03:33:21;;;;;;;27.90;14.03;;;;;;;4.07;74.10;101217.04;124446;1099;101945;-77
2023/03/18 03:35:54;;;;;;;;;;;;;;;4.07;74.22;101208.36;124993;1099;102375;-78
2023/03/18 03:38:26;;;;;;;32.27;15.70;;;;;;;4.05;73.47;101207.31;124562;1099;104682;-78
2023/03/18 03:40:59;;;;;;;31.57;14.90;;;;;;;4.04;73.94;101210.73;125049;1099;104197;-77
2023/03/18 03:43:30;;;;;;;30.73;14.63;;;;;;;4.05;73.57;101205.64;124510;1099;104204;-77
2023/03/18 03:46:01;;;;;;;31.33;15.43;;;;;;;4.07;74.10;101211.84;124832;1099;104746;-78
2023/03/18 03:48:33;;;;;;;29.53;15.60;;;;;;;4.07;73.93;101205.76;124547;1099;104112;-75
2023/03/18 03:51:05;;;;;;;33.73;15.63;;;;;;;4.07;73.65;101205.76;124842;1099;101909;-76
2023/03/18 03:53:37;;;;;;;34.00;16.43;;;;;;;4.09;73.85;101212.84;124910;1099;101886;-77
2023/03/18 03:56:10;;;;;;;34.20;17.93;;;;;;;4.08;73.87;101207.54;124915;1099;104251;-75
2023/03/18 03:58:41;;;;;;;34.33;16.43;;;;;;;4.09;73.51;101209.36;124890;1099;101871;-77
2023/03/18 04:01:13;;;;;;;35.60;18.37;;;;;;;4.08;73.73;101211.06;124912;1099;104233;-77
2023/03/18 04:03:44;;;;;;;36.40;17.73;;;;;;;4.09;74.19;101210.25;124436;1099;101879;-76
2023/03/18 04:06:16;;;;;;;32.30;16.90;;;;;;;4.11;74.96;101212.95;124514;1099;104214;-77
2023/03/18 04:08:53;;;;;;;34.50;16.57;;;;;;;4.10;73.97;101209.47;124445;1099;104246;-77
2023/03/18 04:11:24;;;;;;;40.90;20.40;;;;;;;4.10;74.44;101212.06;124408;1099;105714;-77
2023/03/18 04:13:56;;;;;;;44.40;21.40;;;;;;;4.11;73.95;101213.89;124413;1099;104281;-77
2023/03/18 04:16:27;;;;;;;41.50;21.23;;;;;;;4.13;74.26;101219.19;124403;1099;104299;-76
2023/03/18 04:18:59;;;;;;;41.53;20.63;;;;;;;4.13;74.35;101214.00;124370;1099;104211;-76
2023/03/18 04:21:30;;;;;;;47.43;25.73;;;;;;;4.16;75.02;101214.22;124396;1099;104351;-77
2023/03/18 04:24:02;;;;;;;54.87;28.03;;;;;;;4.16;74.66;101210.70;124924;1099;104265;-76
2023/03/18 04:26:34;;;;;;;53.83;27.47;;;;;;;4.17;75.78;101215.12;124373;1099;104348;-78
2023/03/18 04:29:07;;;;;;;49.43;25.60;;;;;;;4.16;75.30;101221.09;124341;1099;104204;-76
2023/03/18 04:31:39;;;;;;;46.40;24.37;;;;;;;4.17;75.23;101217.71;124450;1099;104692;-76
2023/03/18 04:34:10;;;;;;;47.33;23.63;;;;;;;4.18;74.53;101210.03;124470;1099;101904;-77
2023/03/18 04:36:41;;;;;;;42.07;22.53;;;;;;;4.18;74.43;101219.53;124451;1099;104159;-76
2023/03/18 04:39:12;;;;;;;43.63;21.60;;;;;;;4.20;74.39;101220.53;124840;1099;104222;-76
2023/03/18 04:41:44;;;;;;;38.33;19.63;;;;;;;4.20;75.66;101218.83;124462;1099;104201;-76
2023/03/18 04:44:16;;;;;;;40.03;19.43;;;;;;;4.21;74.41;101222.35;124485;1099;101913;-76
2023/03/18 04:46:52;;;;;;;43.73;20.23;;;;;;;4.21;75.95;101224.95;124395;1099;102229;-76
2023/03/18 04:49:24;;;;;;;37.85;18.60;;;;;;;4.21;75.58;101223.24;124308;1099;101964;-76
2023/03/18 04:51:55;;;;;;;40.87;19.70;;;;;;;4.21;75.57;101231.03;124791;1099;104211;-76
2023/03/18 04:54:31;;;;;;;41.87;19.83;;;;;;;4.23;75.74;101228.55;124779;1099;101941;-76
2023/03/18 04:57:06;;;;;;;46.63;24.15;;;;;;;4.22;76.46;101230.22;124518;1099;102523;-77
2023/03/18 04:59:39;;;;;;;46.83;21.57;;;;;;;4.23;75.76;101233.75;124407;1099;101982;-76
2023/03/18 05:02:11;;;;;;;41.57;20.77;;;;;;;4.23;75.43;101232.04;124326;1099;102028;-76
2023/03/18 05:04:43;;;;;;;44.57;20.20;;;;;;;4.24;76.73;101231.27;124309;1102;104297;-76
2023/03/18 05:07:17;;;;;;;46.10;23.23;;;;;;;4.24;76.24;101235.53;124287;1099;104169;-76
2023/03/18 05:09:54;;;;;;;45.77;22.10;;;;;;;4.23;76.03;101238.94;124784;1099;104251;-76
2023/03/18 05:12:26;;;;;;;48.17;23.63;;;;;;;4.25;76.04;101247.73;124538;1099;104294;-75
2023/03/18 05:14:58;;;;;;;45.77;22.50;;;;;;;4.27;75.83;101247.08;124665;1099;104172;-75
2023/03/18 05:17:29;;;;;;;48.50;21.87;;;;;;;4.31;76.19;101246.48;124805;1099;102073;-77
2023/03/18 05:20:04;;;;;;;46.00;20.97;;;;;;;4.29;76.04;101242.88;124492;1099;103244;-77
2023/03/18 05:22:35;;;;;;;44.73;21.80;;;;;;;4.31;76.05;101246.48;124446;1099;104214;-78
2023/03/18 05:25:32;;;;;;;47.90;21.20;;;;;;;4.32;77.12;101248.30;124442;1099;102008;-77
2023/03/18 05:28:03;;;;;;;47.37;21.27;;;;;;;4.31;75.86;101240.39;124395;1099;103897;-76
2023/03/18 05:30:42;;;;;;;46.27;22.53;;;;;;;4.37;76.87;101248.63;124392;1099;101923;-76
2023/03/18 05:33:16;;;;;;;48.87;22.00;;;;;;;4.35;76.88;101245.03;124794;1098;104188;-75
2023/03/18 05:35:54;;;;;;;48.63;21.97;;;;;;;4.37;76.99;101251.23;124761;1098;101857;-76
2023/03/18 05:38:30;;;;;;;50.45;21.75;;;;;;;4.39;77.04;101248.75;124356;1099;118611;-75
2023/03/18 05:41:01;;;;;;;55.97;23.17;;;;;;;4.42;78.99;101248.97;124351;1102;104306;-79
2023/03/18 05:43:40;;;;;;;55.03;23.07;;;;;;;4.44;77.18;101248.30;124323;1099;102340;-77
2023/03/18 05:46:11;;;;;;;50.77;21.63;;;;;;;4.45;77.20;101259.59;124745;1098;104194;-76
2023/03/18 05:48:56;;;;;;;50.37;22.73;;;;;;;4.51;77.35;101260.03;124688;1099;104284;-76
2023/03/18 05:51:29;;;;;;;;;;;;;;;4.53;77.19;101262.73;124816;1099;104342;-76
2023/03/18 05:54:01;;;;;;;51.17;21.37;;;;;;;4.51;77.55;101265.23;124394;1099;104208;-77
2023/03/18 05:56:37;;;;;;;53.83;22.53;;;;;;;4.54;77.11;101259.36;124803;1099;104338;-76
2023/03/18 05:59:10;;;;;;;51.50;22.10;;;;;;;4.56;77.20;101278.55;124318;1099;111847;-75
2023/03/18 06:01:47;;;;;;;53.00;22.10;;;;;;;4.57;77.20;101283.87;124394;1099;101955;-76
2023/03/18 06:04:19;;;;;;;56.20;22.40;;;;;;;4.61;76.95;101271.98;124348;1099;104347;-76
2023/03/18 06:06:51;;;;;;;56.27;23.00;;;;;;;4.65;77.31;101277.52;124837;1098;104208;-75
2023/03/18 06:09:22;;;;;;;57.77;21.97;;;;;;;4.68;77.40;101277.73;124499;1099;104714;-75
2023/03/18 06:11:54;;;;;;;64.00;23.37;;;;;;;4.67;77.88;101281.16;124495;1099;104235;-76
2023/03/18 06:14:28;;;;;;;58.73;24.67;;;;;;;4.64;78.39;101286.12;124523;1099;101807;-75
2023/03/18 06:16:58;;;;;;;;;;;;;;;4.63;78.62;101279.11;124603;1099;102038;-74
2023/03/18 06:19:31;;;;;;;59.27;23.83;;;;;;;4.67;77.79;101286.34;124350;1099;104322;-75
2023/03/18 06:22:02;;;;;;;59.80;22.83;;;;;;;4.70;77.93;101292.55;124911;1099;101891;-74
2023/03/18 06:24:33;;;;;;;56.40;22.33;;;;;;;4.71;80.02;101296.97;124853;1099;104172;-76
2023/03/18 06:27:05;;;;;;;64.03;25.27;;;;;;;4.69;80.08;101304.66;124483;1099;101843;-75
2023/03/18 06:29:37;;;;;;;67.37;27.67;;;;;;;4.67;78.91;101291.55;124519;1099;101908;-76
2023/03/18 06:32:13;;;;;;;56.50;22.53;;;;;;;4.67;80.53;101280.22;124611;1102;104176;-77
2023/03/18 06:34:44;;;;;;;62.17;24.93;;;;;;;4.66;80.17;101281.94;124919;1098;104172;-75
2023/03/18 06:37:16;;;;;;;75.20;28.13;;;;;;;4.71;80.55;101290.06;124407;1099;104245;-76
2023/03/18 06:39:48;;;;;;;71.47;26.43;;;;;;;4.68;80.92;101295.94;124573;1099;104178;-76
2023/03/18 06:42:19;;;;;;;71.77;26.87;;;;;;;4.71;79.49;101302.17;124974;1099;102365;-76
2023/03/18 06:45:00;;;;;;;77.90;29.10;;;;;;;4.73;79.50;101301.47;124704;1099;104332;-77
2023/03/18 06:47:42;;;;;;;74.57;26.47;;;;;;;4.75;80.24;101294.67;124591;1099;104220;-76
2023/03/18 06:50:14;;;;;;;57.87;23.63;;;;;;;4.78;80.61;101300.09;124377;1099;111332;-76
2023/03/18 06:52:45;;;;;;;72.10;26.27;;;;;;;4.80;82.64;101295.92;124510;1099;104230;-76
2023/03/18 06:55:18;;;;;;;65.70;26.07;;;;;;;4.80;82.95;101295.00;124430;1099;102394;-75
2023/03/18 06:57:49;;;;;;;78.83;28.63;;;;;;;4.80;82.65;101293.33;124391;1099;104650;-74
2023/03/18 07:00:24;;;;;;;60.85;24.18;;;;;;;4.81;83.99;101297.71;124453;1099;104331;-75
2023/03/18 07:02:56;;;;;;;71.80;26.87;;;;;;;4.82;84.10;101296.92;124364;1099;104376;-73
2023/03/18 07:05:29;;;;;;;70.25;25.27;;;;;;;4.85;83.97;101288.45;124444;1099;104268;-75
2023/03/18 07:08:01;;;;;;;69.47;26.73;;;;;;;4.86;83.46;101296.36;124453;1099;104383;-73
2023/03/18 07:10:33;;;;;;;65.10;24.67;;;;;;;4.92;84.89;101295.88;124773;1099;104242;-76
2023/03/18 07:13:12;;;;;;;64.20;25.50;;;;;;;4.95;83.74;101292.60;124379;1099;101928;-75
2023/03/18 07:15:44;;;;;;;68.73;27.83;;;;;;;4.98;82.58;101298.02;124295;1099;104271;-74
2023/03/18 07:18:15;;;;;;;66.03;24.70;;;;;;;5.00;83.17;101297.34;124301;1099;101829;-75
2023/03/18 07:20:48;;;;;;;60.97;24.53;;;;;;;5.08;83.00;101294.36;124358;1099;104345;-75
2023/03/18 07:23:19;;;;;;;64.97;25.23;;;;;;;5.14;81.52;101300.92;124768;1099;104412;-75
2023/03/18 07:25:51;;;;;;;65.00;24.67;;;;;;;5.18;82.00;101300.32;124343;1099;104207;-75
2023/03/18 07:28:24;;;;;;;57.73;23.27;;;;;;;5.23;82.21;101303.25;124416;1099;104254;-75
2023/03/18 07:30:56;;;;;;;62.90;26.50;;;;;;;5.25;82.77;101301.67;124343;1099;104163;-74
2023/03/18 07:33:28;;;;;;;63.23;25.63;;;;;;;5.29;81.64;101303.67;124378;1102;104332;-75
2023/03/18 07:35:59;;;;;;;60.37;23.70;;;;;;;5.34;81.38;101306.59;124760;1099;104176;-76
2023/03/18 07:38:30;;;;;;;64.57;24.97;;;;;;;5.36;81.34;101303.31;124892;1099;101922;-76
2023/03/18 07:41:01;;;;;;;65.87;26.97;;;;;;;5.39;81.60;101295.72;124815;1099;104227;-76
2023/03/18 07:43:33;;;;;;;60.43;24.53;;;;;;;5.40;81.56;101294.02;124868;1099;101830;-77
2023/03/18 07:46:05;;;;;;;63.63;25.50;;;;;;;5.42;81.14;101299.32;124751;1099;104326;-81
2023/03/18 07:48:36;;;;;;;61.70;24.77;;;;;;;5.44;80.90;101301.25;124345;1098;104213;-74
2023/03/18 07:51:08;;;;;;;62.33;26.30;;;;;;;5.47;81.18;101296.25;124716;1099;104280;-75
2023/03/18 07:53:39;;;;;;;61.40;24.93;;;;;;;5.53;81.64;101306.16;124813;1099;104226;-76
2023/03/18 07:56:11;;;;;;;64.97;25.70;;;;;;;5.53;81.64;101300.95;124753;1099;104682;-76
2023/03/18 07:58:43;;;;;;;60.90;24.93;;;;;;;5.52;81.52;101297.47;124370;1098;104322;-75
2023/03/18 08:01:17;;;;;;;66.57;27.10;;;;;;;5.56;80.65;101299.49;124309;1099;104345;-74
2023/03/18 08:03:48;;;;;;;62.37;25.80;;;;;;;5.60;81.43;101310.11;124843;1098;101980;-76
2023/03/18 08:06:20;;;;;;;65.67;26.30;;;;;;;5.56;81.75;101317.72;124863;1099;104246;-74
2023/03/18 08:08:51;;;;;;;59.67;25.53;;;;;;;5.55;81.30;101322.81;124836;1098;104192;-74
2023/03/18 08:11:22;;;;;;;61.45;24.90;;;;;;;5.58;81.28;101326.52;124361;1101;104318;-77
2023/03/18 08:13:54;;;;;;;61.17;25.63;;;;;;;5.59;81.17;101322.20;124847;1099;104421;-77
2023/03/18 08:16:25;;;;;;;60.23;23.73;;;;;;;5.63;80.93;101312.93;124824;1099;104169;-74
2023/03/18 08:18:57;;;;;;;64.67;26.10;;;;;;;5.65;80.85;101325.23;124873;1099;104169;-74
2023/03/18 08:21:28;;;;;;;58.40;25.10;;;;;;;5.66;80.90;101318.34;124677;1099;101830;-74
2023/03/18 08:24:00;;;;;;;63.03;25.27;;;;;;;5.68;81.22;101319.34;124736;1099;104287;-73
2023/03/18 08:26:31;;;;;;;57.70;25.00;;;;;;;5.70;80.65;101313.45;124735;1099;104239;-74
2023/03/18 08:29:02;;;;;;;50.67;22.97;;;;;;;5.78;81.11;101320.87;124391;1099;104218;-75
2023/03/18 08:31:34;;;;;;;58.33;25.43;;;;;;;5.83;81.15;101314.26;124484;1099;101966;-75
2023/03/18 08:34:05;;;;;;;56.50;24.75;;;;;;;5.94;80.85;101308.09;124731;1099;104175;-75
2023/03/18 08:36:37;;;;;;;56.17;24.50;;;;;;;6.08;80.91;101317.77;124740;1099;101921;-76
2023/03/18 08:39:08;;;;;;;58.17;24.90;;;;;;;6.18;80.73;101308.84;124653;1099;104172;-74
2023/03/18 08:41:40;;;;;;;55.47;23.40;;;;;;;6.27;80.83;101316.38;124429;1099;104169;-76
2023/03/18 08:44:12;;;;;;;53.30;24.03;;;;;;;6.32;80.41;101314.97;124681;1099;104258;-74
2023/03/18 08:46:43;;;;;;;53.40;22.67;;;;;;;6.32;80.74;101308.87;124325;1099;101931;-76
2023/03/18 08:49:14;;;;;;;62.30;26.03;;;;;;;6.39;80.56;101311.98;124324;1099;102310;-75
2023/03/18 08:51:45;;;;;;;52.83;24.30;;;;;;;6.50;80.75;101314.36;124710;1099;104316;-74
2023/03/18 08:54:17;;;;;;;51.73;23.27;;;;;;;6.57;80.66;101311.36;124872;1099;101928;-75
2023/03/18 08:56:48;;;;;;;55.33;24.27;;;;;;;6.62;80.44;101309.95;124853;1099;104227;-75
2023/03/18 08:59:20;;;;;;;54.37;24.10;;;;;;;6.62;80.42;101312.55;124833;1099;104172;-75
2023/03/18 09:01:52;;;;;;;61.77;25.30;;;;;;;6.59;80.37;101309.75;124777;1099;103481;-77
2023/03/18 09:04:24;;;;;;;57.37;25.80;;;;;;;6.56;80.43;101314.77;124771;1099;104313;-76
2023/03/18 09:06:55;;;;;;;56.33;24.60;;;;;;;6.52;80.29;101318.89;124857;1099;104204;-76
2023/03/18 09:09:27;;;;;;;57.40;25.67;;;;;;;6.53;80.42;101324.99;124423;1099;104185;-76
2023/03/18 09:11:58;;;;;;;56.20;26.17;;;;;;;6.54;80.04;101321.59;124762;1099;104220;-76
2023/03/18 09:14:29;;;;;;;60.37;27.03;;;;;;;6.61;79.96;101311.66;124744;1099;104179;-76
2023/03/18 09:17:01;;;;;;;56.90;27.00;;;;;;;6.70;79.94;101319.19;124735;1099;104176;-75
2023/03/18 09:19:32;;;;;;;57.10;24.87;;;;;;;6.74;80.25;101315.95;124822;1099;104240;-76
2023/03/18 09:22:03;;;;;;;55.55;25.60;;;;;;;6.77;79.78;101323.97;124394;1099;104236;-76
2023/03/18 09:24:35;;;;;;;58.03;26.60;;;;;;;6.83;80.12;101324.37;124751;1099;104207;-75
2023/03/18 09:27:06;;;;;;;58.80;25.83;;;;;;;6.93;80.16;101324.95;124727;1098;104352;-76
2023/03/18 09:29:38;;;;;;;62.27;26.53;;;;;;;6.98;79.89;101327.06;124674;1099;104233;-75
2023/03/18 09:32:10;;;;;;;51.83;23.13;;;;;;;6.97;79.07;101334.80;124799;1099;104274;-75
2023/03/18 09:34:41;;;;;;;53.87;25.40;;;;;;;7.00;79.66;101327.16;124723;1099;104165;-75
2023/03/18 09:37:13;;;;;;;54.93;24.83;;;;;;;7.05;79.37;101323.12;124698;1099;104197;-74
2023/03/18 09:39:46;;;;;;;58.90;26.20;;;;;;;7.06;79.36;101314.50;124690;1099;104801;-74
2023/03/18 09:42:44;;;;;;;56.73;24.57;;;;;;;7.12;78.72;101319.18;124555;1099;104383;-78
2023/03/18 09:45:21;;;;;;;58.23;25.70;;;;;;;7.18;79.08;101319.56;124439;1099;104233;-76
2023/03/18 09:48:05;;;;;;;54.37;25.10;;;;;;;7.25;79.31;101326.09;124510;1099;104223;-76
2023/03/18 09:50:43;;;;;;;55.35;23.85;;;;;;;7.27;79.46;101317.53;124260;1099;101836;-75
2023/03/18 09:53:21;;;;;;;55.77;24.43;;;;;;;7.27;78.88;101317.53;124471;1099;101918;-74
2023/03/18 09:55:56;;;;;;;59.20;25.00;;;;;;;7.24;78.30;101319.95;124820;1099;104270;-76
2023/03/18 09:58:33;;;;;;;55.43;25.30;;;;;;;7.30;78.51;101322.05;124783;1099;104354;-76
2023/03/18 10:01:08;;;;;;;57.57;25.43;;;;;;;7.28;78.23;101318.45;124389;1099;104195;-78
2023/03/18 10:03:46;;;;;;;54.00;24.10;;;;;;;7.32;78.63;101320.42;124358;1099;102188;-75
2023/03/18 10:06:19;;;;;;;53.57;24.00;;;;;;;7.35;78.19;101323.23;124370;1099;104299;-82
2023/03/18 10:08:58;;;;;;;52.20;23.20;;;;;;;7.45;78.14;101319.47;124408;1099;104304;-76
2023/03/18 10:11:35;;;;;;;58.10;25.73;;;;;;;7.40;77.88;101316.57;124311;1099;101903;-77
2023/03/18 10:14:20;;;;;;;52.40;23.73;;;;;;;7.41;77.22;101318.38;124764;1099;104229;-77
2023/03/18 10:17:06;;;;;;;55.77;24.30;;;;;;;7.45;77.18;101322.08;124911;1099;101826;-76
2023/03/18 10:19:44;;;;;;;50.83;23.77;;;;;;;7.53;77.14;101316.53;124808;1099;104172;-76
2023/03/18 10:22:31;;;;;;;48.63;22.73;;;;;;;7.66;77.65;101314.66;124460;1099;102927;-74
2023/03/18 10:25:12;;;;;;;49.23;22.97;;;;;;;7.73;77.70;101309.90;124304;1099;104230;-74
2023/03/18 10:28:00;;;;;;;49.75;22.15;;;;;;;7.83;76.58;101313.95;124484;1099;101903;-76
2023/03/18 10:30:43;;;;;;;47.73;22.60;;;;;;;7.90;77.51;101308.30;124498;1099;104181;-76
2023/03/18 10:33:23;;;;;;;44.00;21.50;;;;;;;7.96;76.94;101309.46;124430;1099;101946;-77
2023/03/18 10:35:59;;;;;;;46.30;21.20;;;;;;;8.00;76.82;101306.23;124780;1098;104249;-78
2023/03/18 10:38:35;;;;;;;41.97;19.90;;;;;;;8.07;77.09;101301.45;124948;1099;104220;-75
2023/03/18 10:41:16;;;;;;;38.67;18.97;;;;;;;8.18;76.32;101301.16;124778;1099;101906;-74
2023/03/18 10:43:50;;;;;;;40.70;20.03;;;;;;;8.21;76.00;101307.48;124685;1099;104233;-74
2023/03/18 10:46:21;;;;;;;;;;;;;;;8.11;73.73;101305.14;124597;1099;101925;-74
2023/03/18 10:48:56;;;;;;;40.00;18.43;;;;;;;8.07;75.57;101304.06;124504;1099;104179;-75
2023/03/18 10:51:32;;;;;;;39.10;19.33;;;;;;;8.07;75.49;101308.37;124591;1098;104280;-75
2023/03/18 10:54:11;;;;;;;40.20;19.50;;;;;;;8.02;75.22;101310.71;124684;1099;104176;-76
2023/03/18 10:56:43;;;;;;;40.80;20.17;;;;;;;7.94;74.79;101305.86;124375;1099;101963;-77
2023/03/18 10:59:17;;;;;;;41.30;18.67;;;;;;;7.88;74.47;101306.39;124784;1099;104316;-75
2023/03/18 11:01:52;;;;;;;40.37;20.33;;;;;;;7.85;75.11;101301.91;124753;1099;101924;-74
2023/03/18 11:04:24;;;;;;;43.73;20.17;;;;;;;7.86;75.03;101298.45;124674;1099;101975;-75
2023/03/18 11:06:58;;;;;;;44.00;21.37;;;;;;;7.89;75.02;101298.64;124640;1099;102809;-76
2023/03/18 11:09:35;;;;;;;41.23;19.60;;;;;;;8.00;75.58;101298.39;124140;1099;104195;-74
2023/03/18 11:12:15;;;;;;;39.57;18.63;;;;;;;8.13;75.74;101297.38;124141;1099;104389;-75
2023/03/18 11:14:50;;;;;;;38.20;18.87;;;;;;;8.22;74.87;101298.81;124458;1099;104317;-75
2023/03/18 11:17:26;;;;;;;42.37;19.17;;;;;;;8.24;75.45;101291.05;125616;1099;101822;-75
2023/03/18 11:20:09;;;;;;;40.60;20.40;;;;;;;8.27;74.65;101279.08;124556;1099;104223;-75
2023/03/18 11:22:47;;;;;;;35.90;18.40;;;;;;;8.28;74.67;101293.94;124133;1099;104182;-74
2023/03/18 11:25:22;;;;;;;38.37;19.70;;;;;;;8.30;74.79;101295.75;124209;1099;101916;-74
2023/03/18 11:27:59;;;;;;;37.53;19.13;;;;;;;8.30;74.84;101295.75;124121;1099;104345;-74
2023/03/18 11:30:44;;;;;;;40.60;20.17;;;;;;;8.30;74.41;101295.75;124162;1099;104297;-75